Martin Park, Louisiana
Current Conditions -  °F | °C
As of 6:53 PM on Friday 28 Nov 2014 (Local Time) from KAEX Reporting Station
Clear Clear  
Wind Chill: 46°   Ceiling: Unl
Heat Index: 49°   Visibility: 10mi
Dew Point: 43°   Wind: 7mph
Humidity: 80%   Direction: 150°SSE
Pressure: 30.2"   Gusts: NA
Location:  31.2655°N, 92.4705°W
Report Text: KAEX 290053Z 15006KT 10SM CLR 09/06 A3020 RMK AO2 SLP230 T00940061
Loading
Personal Weather Stations






























Interactive Weather Map New forecast layout! Learn more

10-Day Weather Forecast

Advertisements
Track Severe Weather on mobile